createdAt,value
2018-12-09T00:02:04.229Z,6.60
2018-12-09T00:04:30.800Z,6.10
2018-12-09T00:06:57.540Z,6.60
2018-12-09T00:09:24.111Z,6.50
2018-12-09T00:11:50.852Z,6.60
2018-12-09T00:14:17.911Z,6.60
2018-12-09T00:16:44.759Z,6.70
2018-12-09T00:19:11.615Z,6.60
2018-12-09T00:21:38.536Z,6.80
2018-12-09T00:24:06.322Z,6.70
2018-12-09T00:26:33.168Z,6.80
2018-12-09T00:28:59.685Z,6.30
2018-12-09T00:31:26.683Z,6.60
2018-12-09T00:33:53.620Z,6.50
2018-12-09T00:36:21.567Z,6.30
2018-12-09T00:38:48.237Z,6.70
2018-12-09T00:41:15.006Z,6.70
2018-12-09T00:43:41.780Z,6.40
2018-12-09T00:46:10.671Z,6.70
2018-12-09T00:48:37.460Z,6.70
2018-12-09T00:51:05.365Z,6.80
2018-12-09T00:53:32.121Z,6.80
2018-12-09T00:55:58.589Z,6.30
2018-12-09T00:58:25.921Z,6.80
2018-12-09T01:00:52.521Z,6.80
2018-12-09T01:03:19.197Z,6.80
2018-12-09T01:05:46.398Z,6.80
2018-12-09T01:08:14.329Z,6.30
2018-12-09T01:10:41.128Z,6.70
2018-12-09T01:13:08.290Z,6.80
2018-12-09T01:15:35.987Z,6.40
2018-12-09T01:18:09.636Z,6.80
2018-12-09T01:20:36.208Z,6.30
2018-12-09T01:23:03.400Z,6.70
2018-12-09T01:25:30.161Z,6.70
2018-12-09T01:27:57.516Z,6.70
2018-12-09T01:30:24.281Z,6.30
2018-12-09T01:32:50.827Z,6.90
2018-12-09T01:35:17.700Z,6.70
2018-12-09T01:37:44.545Z,6.80
2018-12-09T01:40:12.618Z,6.30
2018-12-09T01:42:39.704Z,6.70
2018-12-09T01:45:08.718Z,6.40
2018-12-09T01:47:36.970Z,6.20
2018-12-09T01:50:05.401Z,6.60
2018-12-09T01:52:31.938Z,6.70
2018-12-09T01:54:58.661Z,6.30
2018-12-09T01:57:25.225Z,6.80
2018-12-09T01:59:53.583Z,6.70
2018-12-09T02:02:20.894Z,6.80
2018-12-09T02:04:47.464Z,6.40
2018-12-09T02:07:14.421Z,6.80
2018-12-09T02:09:41.442Z,6.80
2018-12-09T02:12:08.182Z,6.70
2018-12-09T02:14:36.067Z,6.80
2018-12-09T02:17:02.911Z,6.40
2018-12-09T02:19:29.390Z,6.90
2018-12-09T02:21:55.917Z,6.80
2018-12-09T02:24:22.678Z,6.80
2018-12-09T02:26:49.545Z,6.90
2018-12-09T02:29:16.491Z,6.30
2018-12-09T02:31:43.186Z,6.30
2018-12-09T02:34:10.127Z,6.70
2018-12-09T02:36:37.345Z,6.70
2018-12-09T02:39:04.444Z,6.70
2018-12-09T02:41:31.536Z,6.20
2018-12-09T02:43:58.266Z,6.70
2018-12-09T02:46:25.016Z,6.40
2018-12-09T02:48:52.109Z,6.40
2018-12-09T02:51:19.841Z,6.70
2018-12-09T02:53:46.571Z,6.60
2018-12-09T02:56:13.276Z,6.40
2018-12-09T02:58:41.263Z,6.60
2018-12-09T03:01:07.891Z,6.80
2018-12-09T03:03:35.554Z,6.80
2018-12-09T03:06:02.786Z,6.60
2018-12-09T03:08:30.163Z,6.80
2018-12-09T03:10:56.703Z,6.80
2018-12-09T03:13:23.235Z,6.70
2018-12-09T03:15:49.913Z,6.70
2018-12-09T03:18:18.357Z,6.70
2018-12-09T03:20:44.987Z,6.30
2018-12-09T03:23:12.062Z,6.40
2018-12-09T03:25:41.966Z,6.60
2018-12-09T03:28:09.850Z,6.70
2018-12-09T03:30:36.545Z,6.80
2018-12-09T03:33:03.454Z,6.80
2018-12-09T03:35:30.145Z,6.50
2018-12-09T03:37:56.933Z,6.90
2018-12-09T03:40:24.673Z,6.90
2018-12-09T03:42:51.344Z,6.40
2018-12-09T03:45:17.898Z,6.90
2018-12-09T03:47:44.698Z,6.90
2018-12-09T03:50:12.199Z,6.90
2018-12-09T03:52:39.924Z,6.70
2018-12-09T03:55:06.560Z,7.10
2018-12-09T03:57:33.460Z,6.90
2018-12-09T03:59:59.994Z,6.90
2018-12-09T04:02:27.635Z,7.00
2018-12-09T04:04:54.163Z,6.80
2018-12-09T04:07:20.852Z,7.00
2018-12-09T04:09:48.298Z,7.10
2018-12-09T04:12:15.134Z,7.10
2018-12-09T04:14:41.844Z,6.80
2018-12-09T04:17:08.554Z,7.00
2018-12-09T04:19:35.279Z,6.80
2018-12-09T04:22:01.773Z,7.00
2018-12-09T04:24:28.327Z,7.00
2018-12-09T04:26:55.707Z,7.10
2018-12-09T04:29:22.322Z,7.10
2018-12-09T04:31:48.976Z,6.60
2018-12-09T04:34:15.545Z,7.30
2018-12-09T04:36:42.029Z,6.80
2018-12-09T04:39:08.680Z,7.10
2018-12-09T04:41:36.790Z,7.10
2018-12-09T04:44:03.431Z,7.10
2018-12-09T04:46:29.955Z,7.10
2018-12-09T04:48:56.628Z,7.10
2018-12-09T04:51:27.174Z,7.10
2018-12-09T04:53:54.297Z,7.10
2018-12-09T04:56:21.143Z,7.00
2018-12-09T04:58:59.586Z,7.10
2018-12-09T05:01:27.068Z,6.90
2018-12-09T05:03:53.805Z,6.60
2018-12-09T05:06:20.462Z,7.10
2018-12-09T05:08:46.956Z,6.60
2018-12-09T05:11:13.670Z,7.00
2018-12-09T05:13:40.099Z,6.80
2018-12-09T05:16:07.397Z,7.00
2018-12-09T05:18:33.941Z,6.70
2018-12-09T05:21:00.704Z,7.20
2018-12-09T05:23:27.169Z,7.00
2018-12-09T05:25:54.643Z,7.10
2018-12-09T05:28:21.195Z,7.00
2018-12-09T05:30:48.232Z,6.80
2018-12-09T05:33:14.912Z,7.10
2018-12-09T05:35:41.665Z,7.10
2018-12-09T05:40:45.385Z,6.70
2018-12-09T05:43:12.340Z,7.10
2018-12-09T05:45:39.145Z,6.70
2018-12-09T05:48:05.806Z,7.00
2018-12-09T05:50:32.349Z,6.60
2018-12-09T05:52:59.000Z,7.00
2018-12-09T05:55:26.589Z,7.00
2018-12-09T05:57:53.537Z,7.00
2018-12-09T06:00:20.461Z,6.60
2018-12-09T06:02:53.420Z,6.90
2018-12-09T06:05:20.380Z,7.00
2018-12-09T06:07:47.323Z,7.00
2018-12-09T06:10:14.112Z,7.00
2018-12-09T06:12:44.395Z,7.00
2018-12-09T06:15:11.263Z,7.20
2018-12-09T06:17:37.696Z,6.50
2018-12-09T06:20:04.316Z,6.70
2018-12-09T06:22:31.146Z,7.00
2018-12-09T06:24:57.784Z,7.00
2018-12-09T06:27:25.293Z,6.80
2018-12-09T06:29:53.751Z,7.00
2018-12-09T06:32:20.453Z,7.00
2018-12-09T06:34:46.947Z,6.60
2018-12-09T06:37:13.580Z,7.10
2018-12-09T06:39:39.919Z,6.40
2018-12-09T06:42:06.382Z,6.60
2018-12-09T06:44:33.046Z,6.90
2018-12-09T06:49:37.958Z,7.00
2018-12-09T06:52:04.612Z,6.70
2018-12-09T06:54:30.908Z,6.60
2018-12-09T06:56:58.171Z,7.00
2018-12-09T06:59:25.348Z,7.10
2018-12-09T07:01:51.745Z,7.10
2018-12-09T07:04:18.312Z,7.10
2018-12-09T07:06:45.212Z,6.60
2018-12-09T07:09:11.744Z,7.10
2018-12-09T07:11:38.153Z,6.80
2018-12-09T07:14:04.843Z,7.00
2018-12-09T07:16:31.261Z,7.00
2018-12-09T07:18:57.771Z,7.00
2018-12-09T07:21:24.438Z,6.60
2018-12-09T07:23:50.824Z,7.00
2018-12-09T07:26:17.457Z,7.00
2018-12-09T07:28:44.081Z,7.00
2018-12-09T07:31:10.713Z,6.70
2018-12-09T07:33:38.397Z,7.00
2018-12-09T07:36:04.817Z,6.90
2018-12-09T07:38:31.294Z,6.90
2018-12-09T07:40:57.861Z,7.00
2018-12-09T07:43:24.188Z,6.70
2018-12-09T07:45:50.808Z,7.10
2018-12-09T07:48:17.311Z,6.70
2018-12-09T07:50:43.718Z,7.00
2018-12-09T07:53:10.129Z,6.70
2018-12-09T07:55:36.549Z,7.00
2018-12-09T07:58:03.015Z,7.00
2018-12-09T08:00:29.607Z,7.00
2018-12-09T08:02:56.049Z,6.80
2018-12-09T08:05:22.619Z,7.10
2018-12-09T08:07:49.329Z,7.10
2018-12-09T08:10:16.949Z,7.00
2018-12-09T08:12:43.596Z,6.90
2018-12-09T08:15:10.124Z,6.90
2018-12-09T08:17:36.768Z,7.00
2018-12-09T08:20:04.046Z,7.00
2018-12-09T08:22:30.816Z,7.00
2018-12-09T08:24:57.161Z,7.00
2018-12-09T08:27:24.148Z,7.00
2018-12-09T08:29:50.533Z,7.00
2018-12-09T08:32:16.857Z,6.90
2018-12-09T08:34:43.463Z,6.90
2018-12-09T08:37:10.156Z,6.90
2018-12-09T08:39:36.817Z,6.90
2018-12-09T08:42:04.350Z,6.90
2018-12-09T08:44:31.219Z,6.90
2018-12-09T08:46:57.724Z,6.90
2018-12-09T08:49:24.329Z,6.90
2018-12-09T08:51:50.855Z,7.00
2018-12-09T08:54:17.305Z,7.00
2018-12-09T08:56:43.626Z,6.90
2018-12-09T08:59:10.069Z,6.90
2018-12-09T09:01:36.753Z,6.70
2018-12-09T09:04:03.397Z,6.90
2018-12-09T09:06:30.012Z,6.80
2018-12-09T09:08:56.655Z,6.40
2018-12-09T09:11:23.256Z,6.90
2018-12-09T09:13:49.569Z,6.90
2018-12-09T09:16:16.998Z,6.80
2018-12-09T09:18:43.735Z,6.90
2018-12-09T09:21:10.349Z,6.90
2018-12-09T09:23:36.661Z,6.80
2018-12-09T09:26:03.340Z,6.80
2018-12-09T09:28:30.082Z,6.70
2018-12-09T09:30:56.597Z,6.80
2018-12-09T09:33:22.970Z,6.80
2018-12-09T09:35:49.493Z,6.40
2018-12-09T09:38:16.301Z,6.70
2018-12-09T09:40:43.207Z,6.70
2018-12-09T09:43:09.818Z,6.50
2018-12-09T09:45:36.853Z,6.80
2018-12-09T09:48:03.403Z,7.00
2018-12-09T09:50:29.809Z,6.80
2018-12-09T09:52:56.601Z,6.50
2018-12-09T09:55:23.223Z,6.90
2018-12-09T09:57:49.695Z,6.60
2018-12-09T10:00:17.200Z,6.80
2018-12-09T10:02:43.617Z,6.80
2018-12-09T10:05:10.093Z,6.30
2018-12-09T10:07:36.854Z,6.80
2018-12-09T10:10:05.013Z,6.40
2018-12-09T10:12:31.677Z,6.80
2018-12-09T10:14:58.193Z,6.80
2018-12-09T10:17:24.740Z,6.80
2018-12-09T10:19:51.431Z,6.80
2018-12-09T10:22:17.759Z,6.70
2018-12-09T10:24:44.434Z,6.70
2018-12-09T10:27:11.044Z,6.30
2018-12-09T10:29:44.398Z,6.70
2018-12-09T10:32:10.883Z,6.80
2018-12-09T10:34:39.020Z,6.40
2018-12-09T10:37:05.529Z,6.70
2018-12-09T10:39:31.972Z,6.70
2018-12-09T10:41:58.300Z,6.80
2018-12-09T10:44:25.343Z,6.80
2018-12-09T10:46:51.975Z,6.30
2018-12-09T10:49:18.740Z,6.80
2018-12-09T10:51:45.068Z,6.80
2018-12-09T10:54:11.604Z,6.50
2018-12-09T10:56:38.248Z,6.80
2018-12-09T10:59:04.726Z,6.50
2018-12-09T11:01:37.292Z,6.80
2018-12-09T11:04:03.607Z,6.90
2018-12-09T11:06:30.472Z,6.70
2018-12-09T11:08:57.069Z,6.60
2018-12-09T11:11:23.670Z,6.40
2018-12-09T11:13:57.763Z,6.80
2018-12-09T11:16:18.569Z,6.80
2018-12-09T11:18:45.146Z,6.80
2018-12-09T11:21:11.706Z,6.90
2018-12-09T11:23:38.746Z,6.60
2018-12-09T11:26:05.697Z,7.00
2018-12-09T11:28:32.089Z,6.30
2018-12-09T11:30:58.582Z,6.90
2018-12-09T11:33:25.197Z,6.80
2018-12-09T11:35:58.589Z,6.50
2018-12-09T11:38:25.466Z,6.70
2018-12-09T11:40:52.497Z,6.70
2018-12-09T11:43:19.496Z,6.80
2018-12-09T11:45:46.222Z,6.70
2018-12-09T11:48:12.932Z,6.70
2018-12-09T11:50:39.651Z,6.80
2018-12-09T11:53:06.201Z,6.90
2018-12-09T11:55:32.889Z,6.70
2018-12-09T11:58:00.019Z,6.70
2018-12-09T12:00:26.835Z,6.10
2018-12-09T12:02:53.428Z,6.60
2018-12-09T12:05:20.266Z,6.60
2018-12-09T12:07:46.699Z,6.60
2018-12-09T12:10:13.849Z,6.60
2018-12-09T12:12:40.652Z,6.80
2018-12-09T12:15:08.279Z,6.70
2018-12-09T12:17:35.890Z,6.60
2018-12-09T12:20:03.090Z,6.80
2018-12-09T12:22:29.746Z,6.30
2018-12-09T12:24:57.090Z,6.20
2018-12-09T12:27:23.886Z,6.50
2018-12-09T12:29:50.577Z,6.80
2018-12-09T12:32:17.409Z,6.80
2018-12-09T12:34:44.142Z,6.90
2018-12-09T12:37:11.704Z,6.50
2018-12-09T12:39:38.341Z,6.90
2018-12-09T12:42:05.260Z,6.60
2018-12-09T12:44:32.260Z,7.00
2018-12-09T12:46:58.783Z,6.60
2018-12-09T12:49:26.090Z,7.00
2018-12-09T12:51:52.626Z,7.10
2018-12-09T12:54:19.137Z,7.00
2018-12-09T12:56:45.932Z,7.00
2018-12-09T12:59:12.775Z,7.00
2018-12-09T13:01:39.310Z,6.90
2018-12-09T13:04:06.051Z,6.90
2018-12-09T13:06:33.377Z,6.90
2018-12-09T13:09:00.359Z,6.90
2018-12-09T13:11:27.718Z,7.00
2018-12-09T13:13:55.886Z,6.90
2018-12-09T13:16:22.826Z,7.00
2018-12-09T13:18:52.537Z,7.00
2018-12-09T13:21:22.468Z,6.90
2018-12-09T13:23:49.628Z,6.90
2018-12-09T13:26:16.567Z,6.80
2018-12-09T13:28:44.018Z,7.00
2018-12-09T13:31:10.809Z,7.00
2018-12-09T13:33:37.706Z,7.00
2018-12-09T13:36:05.605Z,6.80
2018-12-09T13:38:32.691Z,7.00
2018-12-09T13:40:59.544Z,7.00
2018-12-09T13:43:26.595Z,6.90
2018-12-09T13:45:53.417Z,6.90
2018-12-09T13:48:20.121Z,6.90
2018-12-09T13:50:47.194Z,6.90
2018-12-09T13:53:13.654Z,6.90
2018-12-09T13:55:40.744Z,6.50
2018-12-09T13:58:07.543Z,6.60
2018-12-09T14:00:34.078Z,6.40
2018-12-09T14:03:00.808Z,6.80
2018-12-09T14:05:27.909Z,6.70
2018-12-09T14:07:54.502Z,6.90
2018-12-09T14:10:21.424Z,6.30
2018-12-09T14:12:48.700Z,6.60
2018-12-09T14:15:15.874Z,6.70
2018-12-09T14:17:42.662Z,6.50
2018-12-09T14:20:11.005Z,6.90
2018-12-09T14:22:40.835Z,6.40
2018-12-09T14:25:07.339Z,6.60
2018-12-09T14:27:34.146Z,6.40
2018-12-09T14:30:00.646Z,6.60
2018-12-09T14:32:28.854Z,6.40
2018-12-09T14:34:55.406Z,6.30
2018-12-09T14:37:22.368Z,6.30
2018-12-09T14:39:49.764Z,6.70
2018-12-09T14:42:17.493Z,6.70
2018-12-09T14:44:44.200Z,6.10
2018-12-09T14:47:16.537Z,6.70
2018-12-09T14:49:44.191Z,6.60
2018-12-09T14:52:11.962Z,6.60
2018-12-09T14:54:39.500Z,6.10
2018-12-09T14:57:06.342Z,6.30
2018-12-09T14:59:32.980Z,6.50
2018-12-09T15:01:59.681Z,6.60
2018-12-09T15:04:27.118Z,6.30
2018-12-09T15:06:55.731Z,6.80
2018-12-09T15:09:22.616Z,6.50
2018-12-09T15:11:49.868Z,6.50
2018-12-09T15:14:17.314Z,6.50
2018-12-09T15:16:44.481Z,6.50
2018-12-09T15:19:11.125Z,6.20
2018-12-09T15:21:37.883Z,6.60
2018-12-09T15:24:04.381Z,6.60
2018-12-09T15:26:31.416Z,6.80
2018-12-09T15:28:58.068Z,6.70
2018-12-09T15:31:25.953Z,6.60
2018-12-09T15:33:52.603Z,6.10
2018-12-09T15:36:19.452Z,6.50
2018-12-09T15:38:46.278Z,6.60
2018-12-09T15:41:13.978Z,6.60
2018-12-09T15:43:42.638Z,6.40
2018-12-09T15:46:09.707Z,6.50
2018-12-09T15:51:20.461Z,6.60
2018-12-09T15:53:48.179Z,6.50
2018-12-09T15:56:15.776Z,6.50
2018-12-09T15:58:42.344Z,6.00
2018-12-09T16:01:08.833Z,6.50
2018-12-09T16:03:36.038Z,6.60
2018-12-09T16:06:02.986Z,6.50
2018-12-09T16:08:30.462Z,6.20
2018-12-09T16:10:57.289Z,6.60
2018-12-09T16:13:24.989Z,6.10
2018-12-09T16:15:51.518Z,6.50
2018-12-09T16:18:19.420Z,6.50
2018-12-09T16:20:46.636Z,6.50
2018-12-09T16:23:14.853Z,6.20
2018-12-09T16:25:46.809Z,6.50
2018-12-09T16:28:15.141Z,6.30
2018-12-09T16:30:41.873Z,6.50
2018-12-09T16:33:08.624Z,6.20
2018-12-09T16:35:35.781Z,6.30
2018-12-09T16:38:03.513Z,6.60
2018-12-09T16:40:30.325Z,6.60
2018-12-09T16:42:56.915Z,6.80
2018-12-09T16:45:23.522Z,6.80
2018-12-09T16:47:49.953Z,6.20
2018-12-09T16:50:16.400Z,6.10
2018-12-09T16:52:42.923Z,6.50
2018-12-09T16:55:09.356Z,6.50
2018-12-09T16:57:36.081Z,6.60
2018-12-09T17:00:03.932Z,6.60
2018-12-09T17:02:30.926Z,6.30
2018-12-09T17:04:57.788Z,6.60
2018-12-09T17:07:24.666Z,6.30
2018-12-09T17:09:51.761Z,6.60
2018-12-09T17:12:18.480Z,6.10
2018-12-09T17:14:44.985Z,6.50
2018-12-09T17:17:11.493Z,6.50
2018-12-09T17:19:38.413Z,6.10
2018-12-09T17:22:04.861Z,6.40
2018-12-09T17:24:31.464Z,6.40
2018-12-09T17:26:57.981Z,6.40
2018-12-09T17:29:24.308Z,6.10
2018-12-09T17:31:50.899Z,6.50
2018-12-09T17:34:17.489Z,6.30
2018-12-09T17:36:43.975Z,6.60
2018-12-09T17:39:11.190Z,6.50
2018-12-09T17:41:38.051Z,6.20
2018-12-09T17:44:04.927Z,6.20
2018-12-09T17:46:32.536Z,6.50
2018-12-09T17:48:59.055Z,6.40
2018-12-09T17:51:25.581Z,6.40
2018-12-09T17:53:52.090Z,6.50
2018-12-09T17:56:18.532Z,6.00
2018-12-09T17:58:45.398Z,6.40
2018-12-09T18:01:16.208Z,6.00
2018-12-09T18:06:19.285Z,6.60
2018-12-09T18:08:45.906Z,6.00
2018-12-09T18:11:12.372Z,5.90
2018-12-09T18:13:45.801Z,6.60
2018-12-09T18:16:12.421Z,6.30
2018-12-09T18:18:39.170Z,6.10
2018-12-09T18:21:06.691Z,6.30
2018-12-09T18:23:35.918Z,6.50
2018-12-09T18:26:04.009Z,5.80
2018-12-09T18:28:30.580Z,6.20
2018-12-09T18:30:58.794Z,6.20
2018-12-09T18:33:25.842Z,6.20
2018-12-09T18:35:54.101Z,6.00
2018-12-09T18:38:20.919Z,6.30
2018-12-09T18:40:48.353Z,6.20
2018-12-09T18:43:16.484Z,6.30
2018-12-09T18:45:43.060Z,6.20
2018-12-09T18:48:09.856Z,5.90
2018-12-09T18:50:38.934Z,6.40
2018-12-09T18:53:06.222Z,5.70
2018-12-09T18:55:33.449Z,6.10
2018-12-09T18:58:00.577Z,6.10
2018-12-09T19:00:27.223Z,5.80
2018-12-09T19:02:55.024Z,5.70
2018-12-09T19:05:21.920Z,6.20
2018-12-09T19:07:49.714Z,5.70
2018-12-09T19:10:17.553Z,6.10
2018-12-09T19:12:44.475Z,6.10
2018-12-09T19:15:11.048Z,6.10
2018-12-09T19:17:37.649Z,5.50
2018-12-09T19:20:04.367Z,6.00
2018-12-09T19:22:32.013Z,6.10
2018-12-09T19:24:58.646Z,6.00
2018-12-09T19:27:25.137Z,5.90
2018-12-09T19:29:51.902Z,5.90
2018-12-09T19:32:18.305Z,5.40
2018-12-09T19:34:45.046Z,5.80
2018-12-09T19:37:11.674Z,5.80
2018-12-09T19:39:38.249Z,5.80
2018-12-09T19:42:05.266Z,5.70
2018-12-09T19:44:32.137Z,5.40
2018-12-09T19:46:58.703Z,5.60
2018-12-09T19:49:28.142Z,5.40
2018-12-09T19:51:55.089Z,5.30
2018-12-09T19:54:21.582Z,5.60
2018-12-09T19:56:48.429Z,5.60
2018-12-09T19:59:15.131Z,5.60
2018-12-09T20:01:42.326Z,5.50
2018-12-09T20:04:08.950Z,5.50
2018-12-09T20:06:35.558Z,5.50
2018-12-09T20:09:02.241Z,5.10
2018-12-09T20:11:28.798Z,5.40
2018-12-09T20:13:55.601Z,5.40
2018-12-09T20:16:23.333Z,5.40
2018-12-09T20:18:49.857Z,5.50
2018-12-09T20:21:16.635Z,5.50
2018-12-09T20:23:43.302Z,5.10
2018-12-09T20:26:11.018Z,5.20
2018-12-09T20:28:37.817Z,5.50
2018-12-09T20:31:04.673Z,5.40
2018-12-09T20:33:31.014Z,5.40
2018-12-09T20:35:57.584Z,5.40
2018-12-09T20:38:24.368Z,5.40
2018-12-09T20:40:52.273Z,5.40
2018-12-09T20:43:18.683Z,5.40
2018-12-09T20:45:44.984Z,5.40
2018-12-09T20:48:13.653Z,5.40
2018-12-09T20:50:40.498Z,5.00
2018-12-09T20:53:07.237Z,5.20
2018-12-09T20:55:33.904Z,5.20
2018-12-09T20:58:00.731Z,5.20
2018-12-09T21:00:27.176Z,5.10
2018-12-09T21:02:53.599Z,4.90
2018-12-09T21:05:20.151Z,5.10
2018-12-09T21:07:46.595Z,5.00
2018-12-09T21:10:13.002Z,5.10
2018-12-09T21:12:39.674Z,5.00
2018-12-09T21:15:06.317Z,5.00
2018-12-09T21:17:32.692Z,5.10
2018-12-09T21:20:00.293Z,5.10
2018-12-09T21:22:27.140Z,4.90
2018-12-09T21:24:53.620Z,4.90
2018-12-09T21:27:20.389Z,4.80
2018-12-09T21:29:47.181Z,5.00
2018-12-09T21:32:13.997Z,4.80
2018-12-09T21:34:40.820Z,4.80
2018-12-09T21:37:07.425Z,4.90
2018-12-09T21:39:33.893Z,4.60
2018-12-09T21:42:01.047Z,4.60
2018-12-09T21:44:27.990Z,4.60
2018-12-09T21:46:55.085Z,4.70
2018-12-09T21:49:21.592Z,4.60
2018-12-09T21:51:49.385Z,4.60
2018-12-09T21:54:15.843Z,4.60
2018-12-09T21:56:49.390Z,4.60
2018-12-09T21:59:15.760Z,4.60
2018-12-09T22:01:42.597Z,4.20
2018-12-09T22:04:09.231Z,4.60
2018-12-09T22:06:35.730Z,4.60
2018-12-09T22:09:02.445Z,4.50
2018-12-09T22:11:29.070Z,4.20
2018-12-09T22:13:55.834Z,4.00
2018-12-09T22:16:22.480Z,4.20
2018-12-09T22:18:48.822Z,4.40
2018-12-09T22:21:16.592Z,4.40
2018-12-09T22:23:43.465Z,4.20
2018-12-09T22:26:11.025Z,3.90
2018-12-09T22:28:37.767Z,4.40
2018-12-09T22:31:11.019Z,3.90
2018-12-09T22:33:37.964Z,4.40
2018-12-09T22:36:04.441Z,4.30
2018-12-09T22:38:31.068Z,4.20
2018-12-09T22:40:58.026Z,4.00
2018-12-09T22:43:24.659Z,4.00
2018-12-09T22:45:51.165Z,3.70
2018-12-09T22:48:17.976Z,4.20
2018-12-09T22:50:44.528Z,4.30
2018-12-09T22:53:11.501Z,3.80
2018-12-09T22:55:38.011Z,3.90
2018-12-09T22:58:04.604Z,4.10
2018-12-09T23:00:32.736Z,4.10
2018-12-09T23:03:03.093Z,4.10
2018-12-09T23:05:29.700Z,4.10
2018-12-09T23:07:56.421Z,4.10
2018-12-09T23:10:23.203Z,4.00
2018-12-09T23:12:49.820Z,3.80
2018-12-09T23:15:16.646Z,3.70
2018-12-09T23:17:43.429Z,3.80
2018-12-09T23:20:11.065Z,3.90
2018-12-09T23:22:37.836Z,3.80
2018-12-09T23:25:04.549Z,3.80
2018-12-09T23:27:31.772Z,3.40
2018-12-09T23:29:59.312Z,3.50
2018-12-09T23:32:25.861Z,3.80
2018-12-09T23:34:53.505Z,3.70
2018-12-09T23:37:21.034Z,3.90
2018-12-09T23:39:47.615Z,3.70
2018-12-09T23:42:14.308Z,3.60
2018-12-09T23:44:41.109Z,3.90
2018-12-09T23:47:10.096Z,3.30
2018-12-09T23:49:36.708Z,3.40
2018-12-09T23:52:03.624Z,3.80
2018-12-09T23:54:30.428Z,3.70
2018-12-09T23:56:57.620Z,3.20
2018-12-09T23:59:24.287Z,3.80
